sensor_id;sensor_type;location;lat;lon;timestamp;P1;durP1;ratioP1;P2;durP2;ratioP2
4206;SDS011;2117;47.972;7.830;2022-12-18T02:32:51;34.73;;;16.80;;
4206;SDS011;2117;47.972;7.830;2022-12-18T02:35:20;37.87;;;15.83;;
4206;SDS011;2117;47.972;7.830;2022-12-18T02:37:49;38.87;;;15.77;;
4206;SDS011;2117;47.972;7.830;2022-12-18T02:40:19;35.77;;;15.90;;
4206;SDS011;2117;47.972;7.830;2022-12-18T02:42:46;35.67;;;15.93;;
4206;SDS011;2117;47.972;7.830;2022-12-18T02:45:12;44.00;;;16.57;;
4206;SDS011;2117;47.972;7.830;2022-12-18T02:47:39;36.03;;;15.27;;
4206;SDS011;2117;47.972;7.830;2022-12-18T02:55:40;34.80;;;16.00;;
4206;SDS011;2117;47.972;7.830;2022-12-18T02:58:34;39.53;;;15.57;;
4206;SDS011;2117;47.972;7.830;2022-12-18T03:03:51;34.10;;;15.27;;
4206;SDS011;2117;47.972;7.830;2022-12-18T03:08:48;40.23;;;14.47;;
4206;SDS011;2117;47.972;7.830;2022-12-18T03:11:17;37.07;;;16.13;;
4206;SDS011;2117;47.972;7.830;2022-12-18T03:14:02;38.13;;;15.40;;
4206;SDS011;2117;47.972;7.830;2022-12-18T03:16:31;40.60;;;16.60;;
4206;SDS011;2117;47.972;7.830;2022-12-18T03:19:00;40.43;;;16.87;;
4206;SDS011;2117;47.972;7.830;2022-12-18T03:21:32;42.70;;;16.20;;
4206;SDS011;2117;47.972;7.830;2022-12-18T03:24:01;36.17;;;13.90;;
4206;SDS011;2117;47.972;7.830;2022-12-18T03:26:32;39.43;;;16.93;;
4206;SDS011;2117;47.972;7.830;2022-12-18T03:29:00;34.37;;;16.53;;
4206;SDS011;2117;47.972;7.830;2022-12-18T03:31:31;32.40;;;14.53;;
4206;SDS011;2117;47.972;7.830;2022-12-18T03:34:04;33.83;;;15.10;;
4206;SDS011;2117;47.972;7.830;2022-12-18T03:36:33;44.97;;;16.43;;
4206;SDS011;2117;47.972;7.830;2022-12-18T03:38:59;35.93;;;15.70;;
4206;SDS011;2117;47.972;7.830;2022-12-18T03:44:12;36.33;;;17.00;;
4206;SDS011;2117;47.972;7.830;2022-12-18T03:47:01;34.17;;;14.63;;
4206;SDS011;2117;47.972;7.830;2022-12-18T03:49:48;32.43;;;15.80;;
4206;SDS011;2117;47.972;7.830;2022-12-18T03:54:58;36.10;;;14.73;;
4206;SDS011;2117;47.972;7.830;2022-12-18T03:57:26;39.63;;;17.03;;
4206;SDS011;2117;47.972;7.830;2022-12-18T03:59:56;30.60;;;14.80;;
4206;SDS011;2117;47.972;7.830;2022-12-18T04:02:24;34.50;;;15.70;;
4206;SDS011;2117;47.972;7.830;2022-12-18T04:04:51;34.67;;;14.63;;
4206;SDS011;2117;47.972;7.830;2022-12-18T04:07:20;32.60;;;12.47;;
4206;SDS011;2117;47.972;7.830;2022-12-18T04:09:47;35.80;;;14.07;;
4206;SDS011;2117;47.972;7.830;2022-12-18T04:12:13;35.57;;;15.57;;
4206;SDS011;2117;47.972;7.830;2022-12-18T04:14:39;35.30;;;14.80;;
4206;SDS011;2117;47.972;7.830;2022-12-18T04:17:05;27.80;;;13.77;;
4206;SDS011;2117;47.972;7.830;2022-12-18T04:19:30;30.03;;;12.67;;
4206;SDS011;2117;47.972;7.830;2022-12-18T04:21:56;32.80;;;14.10;;
4206;SDS011;2117;47.972;7.830;2022-12-18T04:24:21;42.37;;;15.40;;
4206;SDS011;2117;47.972;7.830;2022-12-18T04:26:47;24.50;;;11.63;;
4206;SDS011;2117;47.972;7.830;2022-12-18T04:29:12;28.30;;;12.80;;
4206;SDS011;2117;47.972;7.830;2022-12-18T04:31:38;24.40;;;10.97;;
4206;SDS011;2117;47.972;7.830;2022-12-18T04:34:03;25.33;;;11.53;;
4206;SDS011;2117;47.972;7.830;2022-12-18T04:36:29;27.47;;;12.10;;
4206;SDS011;2117;47.972;7.830;2022-12-18T04:38:55;29.70;;;13.43;;
4206;SDS011;2117;47.972;7.830;2022-12-18T04:41:20;38.63;;;15.20;;
4206;SDS011;2117;47.972;7.830;2022-12-18T04:43:48;27.03;;;13.70;;
4206;SDS011;2117;47.972;7.830;2022-12-18T04:46:14;28.30;;;13.17;;
4206;SDS011;2117;47.972;7.830;2022-12-18T04:48:40;30.47;;;13.70;;
4206;SDS011;2117;47.972;7.830;2022-12-18T04:51:05;35.70;;;16.73;;
4206;SDS011;2117;47.972;7.830;2022-12-18T04:53:31;33.13;;;13.63;;
4206;SDS011;2117;47.972;7.830;2022-12-18T04:56:04;28.37;;;13.50;;
4206;SDS011;2117;47.972;7.830;2022-12-18T04:58:35;31.77;;;13.93;;
4206;SDS011;2117;47.972;7.830;2022-12-18T05:01:01;31.40;;;14.53;;
4206;SDS011;2117;47.972;7.830;2022-12-18T05:03:27;28.77;;;14.23;;
4206;SDS011;2117;47.972;7.830;2022-12-18T05:05:52;48.90;;;13.37;;
4206;SDS011;2117;47.972;7.830;2022-12-18T05:08:18;26.20;;;12.27;;
4206;SDS011;2117;47.972;7.830;2022-12-18T05:10:44;36.57;;;14.60;;
4206;SDS011;2117;47.972;7.830;2022-12-18T05:13:09;26.20;;;12.43;;
4206;SDS011;2117;47.972;7.830;2022-12-18T05:15:35;31.23;;;13.73;;
4206;SDS011;2117;47.972;7.830;2022-12-18T05:18:01;36.37;;;15.90;;
4206;SDS011;2117;47.972;7.830;2022-12-18T05:20:28;38.40;;;16.60;;
4206;SDS011;2117;47.972;7.830;2022-12-18T05:22:54;46.50;;;18.40;;
4206;SDS011;2117;47.972;7.830;2022-12-18T05:25:20;46.70;;;17.20;;
4206;SDS011;2117;47.972;7.830;2022-12-18T05:27:46;48.37;;;19.27;;
4206;SDS011;2117;47.972;7.830;2022-12-18T05:30:12;53.87;;;19.17;;
4206;SDS011;2117;47.972;7.830;2022-12-18T05:32:38;47.83;;;19.03;;
4206;SDS011;2117;47.972;7.830;2022-12-18T05:35:05;43.33;;;17.43;;
4206;SDS011;2117;47.972;7.830;2022-12-18T05:37:32;42.13;;;16.40;;
4206;SDS011;2117;47.972;7.830;2022-12-18T05:39:58;30.90;;;15.30;;
4206;SDS011;2117;47.972;7.830;2022-12-18T05:42:24;52.53;;;16.07;;
4206;SDS011;2117;47.972;7.830;2022-12-18T05:44:49;36.67;;;16.17;;
4206;SDS011;2117;47.972;7.830;2022-12-18T05:47:15;43.10;;;16.33;;
4206;SDS011;2117;47.972;7.830;2022-12-18T05:49:41;35.33;;;14.73;;
4206;SDS011;2117;47.972;7.830;2022-12-18T05:52:06;43.33;;;14.53;;
4206;SDS011;2117;47.972;7.830;2022-12-18T05:54:32;42.50;;;17.60;;
4206;SDS011;2117;47.972;7.830;2022-12-18T05:56:57;40.00;;;15.03;;
4206;SDS011;2117;47.972;7.830;2022-12-18T05:59:23;30.57;;;14.20;;
4206;SDS011;2117;47.972;7.830;2022-12-18T06:01:49;28.77;;;13.47;;
4206;SDS011;2117;47.972;7.830;2022-12-18T06:04:15;34.83;;;14.13;;
4206;SDS011;2117;47.972;7.830;2022-12-18T06:06:40;42.13;;;15.67;;
4206;SDS011;2117;47.972;7.830;2022-12-18T06:09:06;41.53;;;16.97;;
4206;SDS011;2117;47.972;7.830;2022-12-18T06:11:34;26.80;;;14.57;;
4206;SDS011;2117;47.972;7.830;2022-12-18T06:14:01;34.50;;;16.10;;
4206;SDS011;2117;47.972;7.830;2022-12-18T06:16:28;26.17;;;11.97;;
4206;SDS011;2117;47.972;7.830;2022-12-18T06:19:00;25.83;;;14.13;;
4206;SDS011;2117;47.972;7.830;2022-12-18T06:21:27;30.73;;;14.50;;
4206;SDS011;2117;47.972;7.830;2022-12-18T06:23:53;32.30;;;13.57;;
4206;SDS011;2117;47.972;7.830;2022-12-18T06:26:18;33.60;;;13.03;;
4206;SDS011;2117;47.972;7.830;2022-12-18T06:28:44;25.07;;;12.10;;
4206;SDS011;2117;47.972;7.830;2022-12-18T06:31:10;31.10;;;12.00;;
4206;SDS011;2117;47.972;7.830;2022-12-18T06:33:36;32.33;;;12.57;;
4206;SDS011;2117;47.972;7.830;2022-12-18T06:36:04;25.10;;;11.20;;
4206;SDS011;2117;47.972;7.830;2022-12-18T06:38:34;29.23;;;12.43;;
4206;SDS011;2117;47.972;7.830;2022-12-18T06:41:05;32.53;;;12.87;;
4206;SDS011;2117;47.972;7.830;2022-12-18T06:43:32;36.77;;;17.47;;
4206;SDS011;2117;47.972;7.830;2022-12-18T06:46:01;30.27;;;12.80;;
4206;SDS011;2117;47.972;7.830;2022-12-18T06:48:28;24.83;;;11.50;;
4206;SDS011;2117;47.972;7.830;2022-12-18T06:50:54;19.60;;;9.70;;
4206;SDS011;2117;47.972;7.830;2022-12-18T06:53:19;23.50;;;9.70;;
4206;SDS011;2117;47.972;7.830;2022-12-18T06:55:45;18.37;;;9.30;;
4206;SDS011;2117;47.972;7.830;2022-12-18T06:58:10;25.33;;;12.40;;
4206;SDS011;2117;47.972;7.830;2022-12-18T07:00:36;33.13;;;15.77;;
4206;SDS011;2117;47.972;7.830;2022-12-18T07:03:01;41.13;;;13.80;;
4206;SDS011;2117;47.972;7.830;2022-12-18T07:05:27;36.90;;;14.47;;
4206;SDS011;2117;47.972;7.830;2022-12-18T07:07:53;76.10;;;24.87;;
4206;SDS011;2117;47.972;7.830;2022-12-18T07:10:18;77.67;;;27.57;;
4206;SDS011;2117;47.972;7.830;2022-12-18T07:12:44;83.17;;;24.80;;
4206;SDS011;2117;47.972;7.830;2022-12-18T07:15:09;95.07;;;33.73;;
4206;SDS011;2117;47.972;7.830;2022-12-18T07:17:35;89.40;;;29.70;;
4206;SDS011;2117;47.972;7.830;2022-12-18T07:20:01;80.30;;;26.17;;
4206;SDS011;2117;47.972;7.830;2022-12-18T07:22:26;75.33;;;21.03;;
4206;SDS011;2117;47.972;7.830;2022-12-18T07:24:52;106.70;;;26.90;;
4206;SDS011;2117;47.972;7.830;2022-12-18T07:27:17;89.83;;;29.77;;
4206;SDS011;2117;47.972;7.830;2022-12-18T07:29:43;97.73;;;27.83;;
4206;SDS011;2117;47.972;7.830;2022-12-18T07:32:09;117.17;;;44.23;;
4206;SDS011;2117;47.972;7.830;2022-12-18T07:34:34;144.70;;;54.27;;
4206;SDS011;2117;47.972;7.830;2022-12-18T07:37:00;134.63;;;59.60;;
4206;SDS011;2117;47.972;7.830;2022-12-18T07:39:26;61.43;;;33.47;;
4206;SDS011;2117;47.972;7.830;2022-12-18T07:41:51;51.07;;;21.17;;
4206;SDS011;2117;47.972;7.830;2022-12-18T07:44:35;37.03;;;18.60;;
4206;SDS011;2117;47.972;7.830;2022-12-18T07:47:01;46.93;;;22.30;;
4206;SDS011;2117;47.972;7.830;2022-12-18T07:49:27;36.07;;;15.37;;
4206;SDS011;2117;47.972;7.830;2022-12-18T07:51:54;55.30;;;33.97;;
4206;SDS011;2117;47.972;7.830;2022-12-18T07:54:21;28.10;;;15.80;;
4206;SDS011;2117;47.972;7.830;2022-12-18T07:56:47;37.93;;;18.70;;
4206;SDS011;2117;47.972;7.830;2022-12-18T07:59:12;36.13;;;18.17;;
4206;SDS011;2117;47.972;7.830;2022-12-18T08:01:38;60.33;;;32.90;;
4206;SDS011;2117;47.972;7.830;2022-12-18T08:04:03;67.30;;;36.43;;
4206;SDS011;2117;47.972;7.830;2022-12-18T08:06:29;57.43;;;27.27;;
4206;SDS011;2117;47.972;7.830;2022-12-18T08:08:55;73.03;;;37.30;;
4206;SDS011;2117;47.972;7.830;2022-12-18T08:11:21;55.63;;;28.10;;
4206;SDS011;2117;47.972;7.830;2022-12-18T08:13:49;122.60;;;48.97;;
4206;SDS011;2117;47.972;7.830;2022-12-18T08:16:15;43.60;;;20.80;;
4206;SDS011;2117;47.972;7.830;2022-12-18T08:18:41;31.33;;;15.93;;
4206;SDS011;2117;47.972;7.830;2022-12-18T08:21:14;23.57;;;13.10;;
4206;SDS011;2117;47.972;7.830;2022-12-18T08:23:48;34.43;;;14.63;;
4206;SDS011;2117;47.972;7.830;2022-12-18T08:26:14;28.40;;;15.67;;
4206;SDS011;2117;47.972;7.830;2022-12-18T08:28:40;73.37;;;37.17;;
4206;SDS011;2117;47.972;7.830;2022-12-18T08:31:07;39.80;;;21.63;;
4206;SDS011;2117;47.972;7.830;2022-12-18T08:33:33;57.07;;;32.43;;
4206;SDS011;2117;47.972;7.830;2022-12-18T08:35:59;37.87;;;19.13;;
4206;SDS011;2117;47.972;7.830;2022-12-18T08:38:26;42.13;;;20.17;;
4206;SDS011;2117;47.972;7.830;2022-12-18T08:41:02;40.00;;;19.13;;
4206;SDS011;2117;47.972;7.830;2022-12-18T08:43:29;71.03;;;29.40;;
4206;SDS011;2117;47.972;7.830;2022-12-18T08:46:17;40.20;;;20.20;;
4206;SDS011;2117;47.972;7.830;2022-12-18T08:48:44;34.90;;;15.90;;
4206;SDS011;2117;47.972;7.830;2022-12-18T08:51:09;50.30;;;24.20;;
4206;SDS011;2117;47.972;7.830;2022-12-18T08:53:35;62.53;;;32.20;;
4206;SDS011;2117;47.972;7.830;2022-12-18T08:56:01;40.23;;;21.00;;
4206;SDS011;2117;47.972;7.830;2022-12-18T08:58:27;90.00;;;42.97;;
4206;SDS011;2117;47.972;7.830;2022-12-18T09:00:53;75.90;;;35.83;;
4206;SDS011;2117;47.972;7.830;2022-12-18T09:03:19;102.87;;;47.40;;
4206;SDS011;2117;47.972;7.830;2022-12-18T09:05:47;79.17;;;41.77;;
4206;SDS011;2117;47.972;7.830;2022-12-18T09:08:12;61.50;;;35.97;;
4206;SDS011;2117;47.972;7.830;2022-12-18T09:10:42;38.70;;;21.10;;
4206;SDS011;2117;47.972;7.830;2022-12-18T09:13:09;39.03;;;21.53;;
4206;SDS011;2117;47.972;7.830;2022-12-18T09:15:46;40.33;;;21.67;;
4206;SDS011;2117;47.972;7.830;2022-12-18T09:18:13;30.43;;;17.97;;
4206;SDS011;2117;47.972;7.830;2022-12-18T09:20:39;34.63;;;17.70;;
4206;SDS011;2117;47.972;7.830;2022-12-18T09:23:05;29.73;;;16.93;;
4206;SDS011;2117;47.972;7.830;2022-12-18T09:25:32;38.10;;;19.40;;
4206;SDS011;2117;47.972;7.830;2022-12-18T09:28:00;32.70;;;16.67;;
4206;SDS011;2117;47.972;7.830;2022-12-18T09:30:27;36.90;;;17.07;;
4206;SDS011;2117;47.972;7.830;2022-12-18T09:32:55;33.40;;;16.80;;
4206;SDS011;2117;47.972;7.830;2022-12-18T09:35:21;38.77;;;17.60;;
4206;SDS011;2117;47.972;7.830;2022-12-18T09:37:47;36.67;;;19.27;;
4206;SDS011;2117;47.972;7.830;2022-12-18T09:40:19;42.30;;;18.23;;
4206;SDS011;2117;47.972;7.830;2022-12-18T09:42:49;34.77;;;17.53;;
4206;SDS011;2117;47.972;7.830;2022-12-18T09:45:20;33.13;;;18.77;;
4206;SDS011;2117;47.972;7.830;2022-12-18T09:47:46;35.23;;;18.70;;
4206;SDS011;2117;47.972;7.830;2022-12-18T09:50:20;35.30;;;17.97;;
4206;SDS011;2117;47.972;7.830;2022-12-18T09:52:52;37.80;;;18.13;;
4206;SDS011;2117;47.972;7.830;2022-12-18T09:55:36;39.63;;;17.67;;
4206;SDS011;2117;47.972;7.830;2022-12-18T10:01:01;39.93;;;19.60;;
4206;SDS011;2117;47.972;7.830;2022-12-18T10:03:26;36.23;;;19.47;;
4206;SDS011;2117;47.972;7.830;2022-12-18T10:05:55;38.27;;;18.43;;
4206;SDS011;2117;47.972;7.830;2022-12-18T10:14:23;35.17;;;18.27;;
4206;SDS011;2117;47.972;7.830;2022-12-18T10:17:02;34.97;;;17.70;;
4206;SDS011;2117;47.972;7.830;2022-12-18T10:19:34;36.23;;;17.33;;
4206;SDS011;2117;47.972;7.830;2022-12-18T10:22:49;36.27;;;20.57;;
4206;SDS011;2117;47.972;7.830;2022-12-18T10:27:56;35.47;;;18.80;;
4206;SDS011;2117;47.972;7.830;2022-12-18T10:30:32;37.97;;;18.50;;
4206;SDS011;2117;47.972;7.830;2022-12-18T10:33:01;36.10;;;17.63;;
4206;SDS011;2117;47.972;7.830;2022-12-18T10:35:28;26.00;;;15.00;;
4206;SDS011;2117;47.972;7.830;2022-12-18T10:40:25;29.20;;;14.70;;
4206;SDS011;2117;47.972;7.830;2022-12-18T10:45:37;33.13;;;16.20;;
4206;SDS011;2117;47.972;7.830;2022-12-18T10:48:02;33.30;;;17.20;;
4206;SDS011;2117;47.972;7.830;2022-12-18T10:50:29;37.37;;;17.10;;
4206;SDS011;2117;47.972;7.830;2022-12-18T10:53:01;43.80;;;19.00;;
4206;SDS011;2117;47.972;7.830;2022-12-18T10:55:38;37.40;;;16.77;;
4206;SDS011;2117;47.972;7.830;2022-12-18T10:58:16;39.03;;;17.63;;
4206;SDS011;2117;47.972;7.830;2022-12-18T11:03:41;31.50;;;18.03;;
4206;SDS011;2117;47.972;7.830;2022-12-18T11:06:10;33.70;;;18.57;;
4206;SDS011;2117;47.972;7.830;2022-12-18T11:08:36;32.27;;;18.00;;
4206;SDS011;2117;47.972;7.830;2022-12-18T11:11:03;39.43;;;17.97;;
4206;SDS011;2117;47.972;7.830;2022-12-18T11:13:32;30.77;;;17.77;;
4206;SDS011;2117;47.972;7.830;2022-12-18T11:15:58;44.90;;;18.90;;
4206;SDS011;2117;47.972;7.830;2022-12-18T11:21:00;33.97;;;17.97;;
4206;SDS011;2117;47.972;7.830;2022-12-18T11:23:32;34.40;;;17.73;;
4206;SDS011;2117;47.972;7.830;2022-12-18T11:25:59;38.17;;;19.43;;
4206;SDS011;2117;47.972;7.830;2022-12-18T11:36:39;37.40;;;21.27;;
4206;SDS011;2117;47.972;7.830;2022-12-18T11:39:35;47.53;;;23.67;;
4206;SDS011;2117;47.972;7.830;2022-12-18T11:42:11;43.67;;;20.83;;
4206;SDS011;2117;47.972;7.830;2022-12-18T11:44:52;37.17;;;20.30;;
4206;SDS011;2117;47.972;7.830;2022-12-18T11:47:25;40.30;;;18.77;;
4206;SDS011;2117;47.972;7.830;2022-12-18T11:49:56;38.80;;;18.80;;
4206;SDS011;2117;47.972;7.830;2022-12-18T11:52:26;38.10;;;20.60;;
4206;SDS011;2117;47.972;7.830;2022-12-18T11:55:00;36.50;;;18.27;;
4206;SDS011;2117;47.972;7.830;2022-12-18T12:00:11;40.10;;;20.50;;
4206;SDS011;2117;47.972;7.830;2022-12-18T12:06:09;42.17;;;20.60;;
4206;SDS011;2117;47.972;7.830;2022-12-18T12:14:01;45.63;;;20.93;;
4206;SDS011;2117;47.972;7.830;2022-12-18T12:16:51;33.20;;;17.97;;
4206;SDS011;2117;47.972;7.830;2022-12-18T12:25:31;42.07;;;22.10;;
4206;SDS011;2117;47.972;7.830;2022-12-18T12:28:15;37.80;;;21.50;;
4206;SDS011;2117;47.972;7.830;2022-12-18T12:31:07;39.87;;;19.90;;
4206;SDS011;2117;47.972;7.830;2022-12-18T12:33:49;40.07;;;23.40;;
4206;SDS011;2117;47.972;7.830;2022-12-18T12:39:11;39.50;;;21.50;;
4206;SDS011;2117;47.972;7.830;2022-12-18T12:41:42;41.53;;;21.50;;
4206;SDS011;2117;47.972;7.830;2022-12-18T12:44:31;46.03;;;22.80;;
4206;SDS011;2117;47.972;7.830;2022-12-18T12:47:01;35.93;;;21.00;;
4206;SDS011;2117;47.972;7.830;2022-12-18T12:49:38;51.17;;;24.77;;
4206;SDS011;2117;47.972;7.830;2022-12-18T12:52:07;42.43;;;22.67;;
4206;SDS011;2117;47.972;7.830;2022-12-18T12:54:39;39.30;;;20.90;;
4206;SDS011;2117;47.972;7.830;2022-12-18T12:57:15;43.80;;;22.23;;
4206;SDS011;2117;47.972;7.830;2022-12-18T13:05:51;48.57;;;25.67;;
4206;SDS011;2117;47.972;7.830;2022-12-18T13:08:27;41.10;;;21.97;;
4206;SDS011;2117;47.972;7.830;2022-12-18T13:10:55;37.20;;;20.37;;
4206;SDS011;2117;47.972;7.830;2022-12-18T13:13:50;38.67;;;20.70;;
4206;SDS011;2117;47.972;7.830;2022-12-18T13:16:18;43.37;;;21.43;;
4206;SDS011;2117;47.972;7.830;2022-12-18T13:18:55;44.10;;;22.90;;
4206;SDS011;2117;47.972;7.830;2022-12-18T13:21:27;43.30;;;21.87;;
4206;SDS011;2117;47.972;7.830;2022-12-18T13:24:14;44.83;;;21.10;;
4206;SDS011;2117;47.972;7.830;2022-12-18T13:26:47;40.47;;;21.30;;
4206;SDS011;2117;47.972;7.830;2022-12-18T13:29:14;44.33;;;22.90;;
4206;SDS011;2117;47.972;7.830;2022-12-18T13:32:10;35.27;;;20.53;;
4206;SDS011;2117;47.972;7.830;2022-12-18T13:34:45;40.43;;;22.90;;
4206;SDS011;2117;47.972;7.830;2022-12-18T13:43:15;37.07;;;20.93;;
4206;SDS011;2117;47.972;7.830;2022-12-18T13:45:44;40.93;;;21.80;;
4206;SDS011;2117;47.972;7.830;2022-12-18T13:48:18;43.13;;;21.27;;
4206;SDS011;2117;47.972;7.830;2022-12-18T13:50:53;37.83;;;21.87;;
4206;SDS011;2117;47.972;7.830;2022-12-18T13:53:33;54.07;;;20.70;;
4206;SDS011;2117;47.972;7.830;2022-12-18T13:56:02;37.43;;;19.30;;
4206;SDS011;2117;47.972;7.830;2022-12-18T13:58:28;41.20;;;20.07;;
4206;SDS011;2117;47.972;7.830;2022-12-18T14:00:54;37.47;;;20.20;;
4206;SDS011;2117;47.972;7.830;2022-12-18T14:03:22;41.97;;;23.57;;
4206;SDS011;2117;47.972;7.830;2022-12-18T14:06:01;43.80;;;21.70;;
4206;SDS011;2117;47.972;7.830;2022-12-18T14:08:40;41.67;;;22.37;;
4206;SDS011;2117;47.972;7.830;2022-12-18T14:11:07;49.87;;;23.50;;
4206;SDS011;2117;47.972;7.830;2022-12-18T14:13:45;41.00;;;21.53;;
4206;SDS011;2117;47.972;7.830;2022-12-18T14:16:12;35.10;;;20.73;;
4206;SDS011;2117;47.972;7.830;2022-12-18T14:18:52;49.63;;;21.33;;
4206;SDS011;2117;47.972;7.830;2022-12-18T14:21:24;55.20;;;29.17;;
4206;SDS011;2117;47.972;7.830;2022-12-18T14:24:12;52.27;;;28.63;;
4206;SDS011;2117;47.972;7.830;2022-12-18T14:26:46;45.87;;;25.87;;
4206;SDS011;2117;47.972;7.830;2022-12-18T14:32:04;44.63;;;22.33;;
4206;SDS011;2117;47.972;7.830;2022-12-18T14:34:42;42.70;;;22.60;;
4206;SDS011;2117;47.972;7.830;2022-12-18T14:37:13;36.03;;;21.80;;
4206;SDS011;2117;47.972;7.830;2022-12-18T14:39:40;41.90;;;21.77;;
4206;SDS011;2117;47.972;7.830;2022-12-18T14:42:21;45.00;;;22.23;;
4206;SDS011;2117;47.972;7.830;2022-12-18T14:44:47;38.53;;;23.43;;
4206;SDS011;2117;47.972;7.830;2022-12-18T14:47:13;41.17;;;21.57;;
4206;SDS011;2117;47.972;7.830;2022-12-18T14:49:40;37.03;;;20.10;;
4206;SDS011;2117;47.972;7.830;2022-12-18T14:52:20;42.27;;;22.00;;
4206;SDS011;2117;47.972;7.830;2022-12-18T14:57:27;55.67;;;30.07;;
4206;SDS011;2117;47.972;7.830;2022-12-18T15:00:05;56.03;;;34.40;;
4206;SDS011;2117;47.972;7.830;2022-12-18T15:02:34;47.40;;;25.10;;
4206;SDS011;2117;47.972;7.830;2022-12-18T15:05:02;53.70;;;25.90;;
4206;SDS011;2117;47.972;7.830;2022-12-18T15:10:29;95.70;;;44.80;;
4206;SDS011;2117;47.972;7.830;2022-12-18T15:18:03;50.53;;;25.90;;
4206;SDS011;2117;47.972;7.830;2022-12-18T15:20:32;71.57;;;35.40;;
4206;SDS011;2117;47.972;7.830;2022-12-18T15:25:55;46.87;;;25.80;;
4206;SDS011;2117;47.972;7.830;2022-12-18T15:28:34;53.87;;;26.67;;
4206;SDS011;2117;47.972;7.830;2022-12-18T15:31:03;57.83;;;32.20;;
4206;SDS011;2117;47.972;7.830;2022-12-18T15:33:35;56.03;;;29.07;;
4206;SDS011;2117;47.972;7.830;2022-12-18T15:36:03;107.93;;;42.30;;
4206;SDS011;2117;47.972;7.830;2022-12-18T15:38:39;83.37;;;36.53;;
4206;SDS011;2117;47.972;7.830;2022-12-18T15:41:16;65.83;;;36.13;;
4206;SDS011;2117;47.972;7.830;2022-12-18T15:43:44;71.03;;;38.07;;
4206;SDS011;2117;47.972;7.830;2022-12-18T15:48:44;49.57;;;31.33;;
4206;SDS011;2117;47.972;7.830;2022-12-18T15:51:15;57.27;;;32.40;;
4206;SDS011;2117;47.972;7.830;2022-12-18T15:53:46;89.03;;;44.37;;
4206;SDS011;2117;47.972;7.830;2022-12-18T15:56:14;90.37;;;47.57;;
4206;SDS011;2117;47.972;7.830;2022-12-18T15:58:59;110.07;;;56.53;;
4206;SDS011;2117;47.972;7.830;2022-12-18T16:01:26;88.53;;;46.70;;
4206;SDS011;2117;47.972;7.830;2022-12-18T16:03:54;79.73;;;40.57;;
4206;SDS011;2117;47.972;7.830;2022-12-18T16:06:20;71.53;;;39.00;;
4206;SDS011;2117;47.972;7.830;2022-12-18T16:08:46;78.03;;;42.87;;
4206;SDS011;2117;47.972;7.830;2022-12-18T16:11:22;83.13;;;42.90;;
4206;SDS011;2117;47.972;7.830;2022-12-18T16:17:05;76.13;;;41.03;;
4206;SDS011;2117;47.972;7.830;2022-12-18T16:19:34;67.00;;;38.93;;
4206;SDS011;2117;47.972;7.830;2022-12-18T16:21:59;62.57;;;33.53;;
4206;SDS011;2117;47.972;7.830;2022-12-18T16:24:29;70.50;;;33.10;;
4206;SDS011;2117;47.972;7.830;2022-12-18T16:26:57;68.07;;;36.27;;
4206;SDS011;2117;47.972;7.830;2022-12-18T16:29:24;66.07;;;35.93;;
4206;SDS011;2117;47.972;7.830;2022-12-18T16:31:52;73.47;;;39.23;;
4206;SDS011;2117;47.972;7.830;2022-12-18T16:34:20;71.13;;;36.67;;
4206;SDS011;2117;47.972;7.830;2022-12-18T16:36:59;73.33;;;40.13;;
4206;SDS011;2117;47.972;7.830;2022-12-18T16:39:27;76.57;;;43.50;;
4206;SDS011;2117;47.972;7.830;2022-12-18T16:41:53;81.40;;;37.93;;
4206;SDS011;2117;47.972;7.830;2022-12-18T16:44:18;69.10;;;38.47;;
4206;SDS011;2117;47.972;7.830;2022-12-18T16:46:45;81.93;;;40.67;;
4206;SDS011;2117;47.972;7.830;2022-12-18T16:49:14;78.17;;;43.87;;
4206;SDS011;2117;47.972;7.830;2022-12-18T16:51:41;82.20;;;43.20;;
4206;SDS011;2117;47.972;7.830;2022-12-18T16:54:07;86.13;;;40.53;;
4206;SDS011;2117;47.972;7.830;2022-12-18T16:56:32;69.73;;;35.47;;
4206;SDS011;2117;47.972;7.830;2022-12-18T16:58:59;75.57;;;40.70;;
4206;SDS011;2117;47.972;7.830;2022-12-18T17:01:26;65.13;;;38.20;;
4206;SDS011;2117;47.972;7.830;2022-12-18T17:04:05;64.40;;;33.90;;
4206;SDS011;2117;47.972;7.830;2022-12-18T17:06:32;69.23;;;37.57;;
4206;SDS011;2117;47.972;7.830;2022-12-18T17:09:01;71.27;;;36.87;;
4206;SDS011;2117;47.972;7.830;2022-12-18T17:11:30;67.07;;;34.77;;
4206;SDS011;2117;47.972;7.830;2022-12-18T17:13:57;60.80;;;36.20;;
4206;SDS011;2117;47.972;7.830;2022-12-18T17:16:23;50.27;;;31.87;;
4206;SDS011;2117;47.972;7.830;2022-12-18T17:18:51;75.93;;;38.03;;
4206;SDS011;2117;47.972;7.830;2022-12-18T17:21:17;88.47;;;50.37;;
4206;SDS011;2117;47.972;7.830;2022-12-18T17:23:43;88.07;;;47.57;;
4206;SDS011;2117;47.972;7.830;2022-12-18T17:26:09;84.17;;;44.37;;
4206;SDS011;2117;47.972;7.830;2022-12-18T17:28:37;85.23;;;37.40;;
4206;SDS011;2117;47.972;7.830;2022-12-18T17:31:15;71.37;;;37.07;;
4206;SDS011;2117;47.972;7.830;2022-12-18T17:33:46;66.57;;;36.10;;
4206;SDS011;2117;47.972;7.830;2022-12-18T17:36:12;60.63;;;34.47;;
4206;SDS011;2117;47.972;7.830;2022-12-18T17:38:39;59.33;;;33.07;;
4206;SDS011;2117;47.972;7.830;2022-12-18T17:41:08;53.40;;;35.73;;
4206;SDS011;2117;47.972;7.830;2022-12-18T17:43:35;54.67;;;32.63;;
4206;SDS011;2117;47.972;7.830;2022-12-18T17:46:09;73.07;;;37.77;;
4206;SDS011;2117;47.972;7.830;2022-12-18T17:48:35;55.20;;;30.97;;
4206;SDS011;2117;47.972;7.830;2022-12-18T17:51:01;55.70;;;28.90;;
4206;SDS011;2117;47.972;7.830;2022-12-18T17:53:27;49.40;;;28.27;;
4206;SDS011;2117;47.972;7.830;2022-12-18T17:55:54;48.67;;;29.77;;
4206;SDS011;2117;47.972;7.830;2022-12-18T17:58:20;54.03;;;32.03;;
4206;SDS011;2117;47.972;7.830;2022-12-18T18:00:46;71.90;;;36.57;;
4206;SDS011;2117;47.972;7.830;2022-12-18T18:03:12;64.57;;;33.70;;
4206;SDS011;2117;47.972;7.830;2022-12-18T18:05:38;52.43;;;28.70;;
4206;SDS011;2117;47.972;7.830;2022-12-18T18:08:04;52.67;;;31.80;;
4206;SDS011;2117;47.972;7.830;2022-12-18T18:10:29;62.30;;;33.23;;
4206;SDS011;2117;47.972;7.830;2022-12-18T18:12:57;53.20;;;30.63;;
4206;SDS011;2117;47.972;7.830;2022-12-18T18:15:41;55.77;;;30.40;;
4206;SDS011;2117;47.972;7.830;2022-12-18T18:18:07;105.40;;;47.60;;
4206;SDS011;2117;47.972;7.830;2022-12-18T18:20:32;72.00;;;38.63;;
4206;SDS011;2117;47.972;7.830;2022-12-18T18:22:58;54.37;;;31.37;;
4206;SDS011;2117;47.972;7.830;2022-12-18T18:25:23;47.83;;;27.83;;
4206;SDS011;2117;47.972;7.830;2022-12-18T18:27:49;49.43;;;28.70;;
4206;SDS011;2117;47.972;7.830;2022-12-18T18:30:14;62.97;;;36.40;;
4206;SDS011;2117;47.972;7.830;2022-12-18T18:32:40;56.30;;;34.40;;
4206;SDS011;2117;47.972;7.830;2022-12-18T18:35:06;68.33;;;39.10;;
4206;SDS011;2117;47.972;7.830;2022-12-18T18:37:32;64.00;;;34.13;;
4206;SDS011;2117;47.972;7.830;2022-12-18T18:39:58;63.60;;;32.93;;
4206;SDS011;2117;47.972;7.830;2022-12-18T18:42:27;59.20;;;32.30;;
4206;SDS011;2117;47.972;7.830;2022-12-18T18:44:53;56.43;;;33.33;;
4206;SDS011;2117;47.972;7.830;2022-12-18T18:47:18;55.67;;;31.87;;
4206;SDS011;2117;47.972;7.830;2022-12-18T18:49:44;57.67;;;32.80;;
4206;SDS011;2117;47.972;7.830;2022-12-18T18:52:10;51.13;;;28.73;;
4206;SDS011;2117;47.972;7.830;2022-12-18T18:54:36;48.20;;;25.60;;
4206;SDS011;2117;47.972;7.830;2022-12-18T18:57:01;43.57;;;25.37;;
4206;SDS011;2117;47.972;7.830;2022-12-18T18:59:27;47.00;;;25.93;;
4206;SDS011;2117;47.972;7.830;2022-12-18T19:01:52;69.37;;;38.23;;
4206;SDS011;2117;47.972;7.830;2022-12-18T19:04:18;52.07;;;30.77;;
4206;SDS011;2117;47.972;7.830;2022-12-18T19:06:43;54.77;;;32.03;;
4206;SDS011;2117;47.972;7.830;2022-12-18T19:09:11;43.47;;;27.27;;
4206;SDS011;2117;47.972;7.830;2022-12-18T19:11:37;55.37;;;29.00;;
4206;SDS011;2117;47.972;7.830;2022-12-18T19:14:22;48.57;;;28.53;;